Terminal Aerodrome Forecast
Issued by NWS

Home | Current Version | Previous Version | Text Only | Print | Product List | Glossary On
Versions: 1 2 3 4 5 6 7 8 9 10 11 12 13 14 15 16 17 18 19
000
FTUS44 KHGX 261120
TAFLBX
TAF
KLBX 261120Z 2612/2712 07003KT 6SM BR SCT250
     FM261400 12007KT P6SM VCSH FEW030 SCT050
     FM262200 13007KT P6SM SCT035 SCT250
     FM270600 VRB02KT 5SM BR SCT250=

USA.gov is the U.S. government's official web portal to all federal, state and local government web resources and services.